Time;durP1;ratioP1;P1;durP2;ratioP2;P2;SDS_P1;SDS_P2;PMS_P1;PMS_P2;Temp;Humidity;BMP_temperature;BMP_pressure;BME280_temperature;BME280_humidity;BME280_pressure;Samples;Min_cycle;Max_cycle;Signal;HPM_P1;HPM_P2
2022/03/04 00:02:07;;;;;;;7.38;5.60;;;6.90;99.90;;;;;;4871309;29;20033;-93
2022/03/04 00:04:37;;;;;;;8.13;5.63;;;6.90;99.90;;;;;;4870712;29;20029;-91
2022/03/04 00:07:03;;;;;;;7.28;5.10;;;6.90;99.90;;;;;;4874267;29;20025;-91
2022/03/04 00:09:29;;;;;;;8.60;5.50;;;6.90;99.90;;;;;;4870959;29;20053;-92
2022/03/04 00:11:54;;;;;;;8.77;5.95;;;6.80;99.90;;;;;;4870956;29;20095;-91
2022/03/04 00:14:20;;;;;;;8.98;6.60;;;6.80;99.90;;;;;;4870886;29;20487;-91
2022/03/04 00:16:46;;;;;;;8.88;6.43;;;6.80;99.90;;;;;;4871217;29;20028;-91
2022/03/04 00:19:12;;;;;;;8.95;6.07;;;6.80;99.90;;;;;;4872343;29;20382;-91
2022/03/04 00:21:38;;;;;;;10.23;6.00;;;6.70;99.90;;;;;;4870830;29;20041;-91
2022/03/04 00:24:06;;;;;;;9.88;6.57;;;6.70;99.90;;;;;;4870213;29;20396;-89
2022/03/04 00:26:32;;;;;;;9.13;6.72;;;6.60;99.90;;;;;;4869612;29;20113;-89
2022/03/04 00:28:57;;;;;;;8.50;5.90;;;6.70;99.90;;;;;;4870682;29;20033;-90
2022/03/04 00:31:24;;;;;;;9.57;6.18;;;6.70;99.90;;;;;;4873045;29;20037;-90
2022/03/04 00:33:50;;;;;;;8.40;5.32;;;6.60;99.90;;;;;;4870344;29;20029;-90
2022/03/04 00:36:16;;;;;;;7.97;5.50;;;6.60;99.90;;;;;;4875042;29;20032;-92
2022/03/04 00:38:41;;;;;;;10.60;5.63;;;6.60;99.90;;;;;;4868793;29;20029;-91
2022/03/04 00:41:07;;;;;;;7.97;5.57;;;6.60;99.90;;;;;;4870643;29;20025;-91
2022/03/04 00:43:33;;;;;;;6.75;4.53;;;6.60;99.90;;;;;;4870270;29;20033;-89
2022/03/04 00:45:59;;;;;;;6.85;4.75;;;6.60;99.90;;;;;;4870514;29;20065;-90
2022/03/04 00:48:25;;;;;;;8.13;4.57;;;6.60;99.90;;;;;;4870619;29;20045;-90
2022/03/04 00:50:51;;;;;;;6.63;4.85;;;6.60;99.90;;;;;;4870486;29;20471;-89
2022/03/04 00:53:17;;;;;;;4.57;3.53;;;6.60;99.90;;;;;;4870489;29;20556;-90
2022/03/04 00:55:43;;;;;;;5.38;3.92;;;6.50;99.90;;;;;;4870281;29;20131;-91
2022/03/04 00:58:09;;;;;;;4.93;3.78;;;6.50;99.90;;;;;;4870275;29;20068;-91
2022/03/04 01:00:35;;;;;;;4.25;3.20;;;6.50;99.90;;;;;;4872982;29;20033;-90
2022/03/04 01:03:03;;;;;;;5.07;3.35;;;6.40;99.90;;;;;;4870455;29;20025;-91
2022/03/04 01:05:29;;;;;;;4.63;2.88;;;6.40;99.90;;;;;;4872742;29;20116;-92
2022/03/04 01:07:55;;;;;;;3.63;2.92;;;6.40;99.90;;;;;;4874019;29;20025;-91
2022/03/04 01:10:21;;;;;;;3.63;2.90;;;6.40;99.90;;;;;;4876246;29;20081;-91
2022/03/04 01:12:47;;;;;;;4.75;3.33;;;6.30;99.90;;;;;;4872089;29;20120;-91
2022/03/04 01:15:13;;;;;;;3.58;2.78;;;6.30;99.90;;;;;;4869554;29;20517;-90
2022/03/04 01:17:39;;;;;;;3.60;2.70;;;6.30;99.90;;;;;;4868610;29;20034;-90
2022/03/04 01:20:06;;;;;;;3.60;2.88;;;6.30;99.90;;;;;;4875892;29;20032;-91
2022/03/04 01:22:32;;;;;;;11.75;3.63;;;6.20;99.90;;;;;;4876613;29;20056;-91
2022/03/04 01:24:58;;;;;;;3.15;2.85;;;6.20;99.90;;;;;;4872809;29;20464;-91
2022/03/04 01:27:24;;;;;;;4.25;3.10;;;6.20;99.90;;;;;;4865241;29;20029;-90
2022/03/04 01:29:50;;;;;;;4.60;3.13;;;6.20;99.90;;;;;;4863120;29;20028;-90
2022/03/04 01:32:16;;;;;;;2.78;2.38;;;6.10;99.90;;;;;;4877190;29;20402;-90
2022/03/04 01:34:42;;;;;;;6.28;2.42;;;6.20;99.90;;;;;;4881512;29;20029;-89
2022/03/04 01:37:08;;;;;;;4.13;2.55;;;6.20;99.90;;;;;;4872980;29;20365;-91
2022/03/04 01:39:38;;;;;;;2.53;2.28;;;6.20;99.90;;;;;;4872010;29;20026;-91
2022/03/04 01:42:04;;;;;;;3.90;2.15;;;6.10;99.90;;;;;;4870169;29;20463;-91
2022/03/04 01:44:30;;;;;;;2.67;2.17;;;6.10;99.90;;;;;;4872368;29;20056;-89
2022/03/04 01:46:55;;;;;;;2.40;2.08;;;6.10;99.90;;;;;;4874633;29;20064;-91
2022/03/04 01:49:21;;;;;;;2.85;2.50;;;6.10;99.90;;;;;;4872714;29;20041;-90
2022/03/04 01:51:47;;;;;;;3.58;2.50;;;6.10;99.90;;;;;;4869776;29;20087;-92
2022/03/04 01:54:13;;;;;;;3.67;2.38;;;6.10;99.90;;;;;;4869976;29;20026;-91
2022/03/04 01:56:40;;;;;;;2.78;2.25;;;6.10;99.90;;;;;;4872257;29;20369;-88
2022/03/04 01:59:05;;;;;;;4.18;2.53;;;6.00;99.90;;;;;;4871841;29;20028;-90
2022/03/04 02:01:32;;;;;;;3.50;2.40;;;6.00;99.90;;;;;;4875047;29;20315;-91
2022/03/04 02:03:59;;;;;;;3.97;2.50;;;6.00;99.90;;;;;;4869543;29;20056;-90
2022/03/04 02:06:24;;;;;;;3.50;2.35;;;6.00;99.90;;;;;;4872455;29;20061;-92
2022/03/04 02:08:50;;;;;;;3.05;2.75;;;6.00;99.90;;;;;;4871165;29;20056;-91
2022/03/04 02:11:17;;;;;;;7.05;3.20;;;5.90;99.90;;;;;;4873928;29;20041;-91
2022/03/04 02:13:43;;;;;;;3.67;2.80;;;5.90;99.90;;;;;;4869403;29;20048;-91
2022/03/04 02:16:35;;;;;;;3.67;2.95;;;5.90;99.90;;;;;;4871913;29;20089;-91
2022/03/04 02:19:01;;;;;;;4.00;3.00;;;5.90;99.90;;;;;;4872051;29;20081;-91
2022/03/04 02:21:30;;;;;;;4.30;3.20;;;5.90;99.90;;;;;;4871858;29;20025;-91
2022/03/04 02:23:55;;;;;;;5.18;3.25;;;5.90;99.90;;;;;;4871644;29;20112;-90
2022/03/04 02:26:21;;;;;;;4.35;3.40;;;5.90;99.90;;;;;;4868771;29;20603;-90
2022/03/04 02:28:47;;;;;;;4.45;3.70;;;5.90;99.90;;;;;;4875082;29;20037;-90
2022/03/04 02:31:14;;;;;;;4.38;3.50;;;5.90;99.90;;;;;;4872144;29;20041;-91
2022/03/04 02:33:40;;;;;;;5.38;4.10;;;5.90;99.90;;;;;;4868810;29;20045;-90
2022/03/04 02:36:06;;;;;;;5.18;4.20;;;5.90;99.90;;;;;;4871116;29;20061;-91
2022/03/04 02:38:32;;;;;;;4.95;3.95;;;5.90;99.90;;;;;;4871328;29;20120;-91
2022/03/04 02:40:58;;;;;;;4.72;3.63;;;5.90;99.90;;;;;;4871624;29;20125;-90
2022/03/04 02:43:23;;;;;;;7.13;4.15;;;5.90;99.90;;;;;;4871575;29;20029;-90
2022/03/04 02:45:51;;;;;;;4.97;3.92;;;5.90;99.90;;;;;;4869869;29;20034;-90
2022/03/04 02:48:16;;;;;;;5.68;3.70;;;5.90;99.90;;;;;;4873534;29;20119;-89
2022/03/04 02:50:42;;;;;;;5.00;4.18;;;5.90;99.90;;;;;;4876784;29;20120;-89
2022/03/04 02:53:08;;;;;;;3.75;3.38;;;5.90;99.90;;;;;;4885474;29;20035;-91
2022/03/04 02:55:33;;;;;;;4.00;3.22;;;5.90;99.90;;;;;;4882594;29;20511;-92
2022/03/04 02:57:59;;;;;;;5.38;3.75;;;5.90;99.90;;;;;;4879443;29;20029;-92
2022/03/04 03:00:25;;;;;;;4.70;3.60;;;5.90;99.90;;;;;;4867494;29;20026;-91
2022/03/04 03:02:51;;;;;;;4.10;3.40;;;5.90;99.90;;;;;;4861189;29;20109;-90
2022/03/04 03:05:17;;;;;;;3.50;3.20;;;5.90;99.90;;;;;;4861268;29;20032;-91
2022/03/04 03:07:42;;;;;;;3.03;2.72;;;5.90;99.90;;;;;;4863387;29;20037;-91
2022/03/04 03:10:10;;;;;;;3.83;3.30;;;5.90;99.90;;;;;;4863477;29;20110;-89
2022/03/04 03:12:36;;;;;;;3.50;3.00;;;5.80;99.90;;;;;;4861541;29;20044;-91
2022/03/04 03:15:03;;;;;;;3.35;3.05;;;5.80;99.90;;;;;;4861021;29;20041;-90
2022/03/04 03:17:28;;;;;;;3.55;2.97;;;5.80;99.90;;;;;;4860789;29;20030;-90
2022/03/04 03:19:54;;;;;;;3.53;3.15;;;5.80;99.90;;;;;;4860997;29;20036;-90
2022/03/04 03:22:20;;;;;;;4.10;3.40;;;5.80;99.90;;;;;;4860783;29;20112;-90
2022/03/04 03:24:46;;;;;;;3.45;2.45;;;5.80;99.90;;;;;;4860807;29;20048;-90
2022/03/04 03:27:12;;;;;;;3.60;3.00;;;5.80;99.90;;;;;;4860059;29;20041;-90
2022/03/04 03:29:38;;;;;;;3.40;3.08;;;5.80;99.90;;;;;;4860619;29;20085;-90
2022/03/04 03:32:04;;;;;;;3.15;2.85;;;5.80;99.90;;;;;;4860354;29;20121;-90
2022/03/04 03:34:30;;;;;;;3.35;3.05;;;5.80;99.90;;;;;;4860603;29;20057;-91
2022/03/04 03:36:56;;;;;;;3.72;3.17;;;5.80;99.90;;;;;;4860585;29;20037;-91
2022/03/04 03:39:22;;;;;;;3.55;3.00;;;5.80;99.90;;;;;;4860305;29;20516;-92
2022/03/04 03:41:47;;;;;;;3.55;3.20;;;5.80;99.90;;;;;;4860283;29;20040;-91
2022/03/04 03:44:13;;;;;;;3.67;3.38;;;5.80;99.90;;;;;;4860585;29;20033;-90
2022/03/04 03:46:39;;;;;;;5.80;3.30;;;5.70;99.90;;;;;;4860185;29;20542;-90
2022/03/04 03:49:05;;;;;;;4.43;3.78;;;5.70;99.90;;;;;;4861243;29;20472;-91
2022/03/04 03:51:32;;;;;;;4.00;3.33;;;5.70;99.90;;;;;;4860167;29;20040;-91
2022/03/04 03:53:58;;;;;;;3.63;3.00;;;5.70;99.90;;;;;;4860357;29;20033;-90
2022/03/04 03:56:23;;;;;;;3.72;3.10;;;5.70;99.90;;;;;;4860136;29;20064;-91
2022/03/04 03:58:49;;;;;;;3.40;3.10;;;5.70;99.90;;;;;;4860238;29;20389;-91
2022/03/04 04:01:15;;;;;;;3.30;2.72;;;5.70;99.90;;;;;;4864049;29;20373;-89
2022/03/04 04:03:40;;;;;;;2.53;2.33;;;5.70;99.90;;;;;;4878495;29;20032;-90
2022/03/04 04:06:07;;;;;;;4.50;2.55;;;5.70;99.90;;;;;;4868961;29;20030;-91
2022/03/04 04:08:32;;;;;;;3.20;2.90;;;5.60;99.90;;;;;;4860037;29;20065;-91
2022/03/04 04:10:58;;;;;;;4.22;3.35;;;5.60;99.90;;;;;;4860218;29;20068;-91
2022/03/04 04:13:24;;;;;;;2.90;2.60;;;5.70;99.90;;;;;;4860388;29;20385;-90
2022/03/04 04:15:50;;;;;;;3.47;2.90;;;5.60;99.90;;;;;;4860416;29;20025;-90
2022/03/04 04:18:15;;;;;;;3.78;3.35;;;5.60;99.90;;;;;;4860954;29;20033;-91
2022/03/04 04:20:41;;;;;;;4.47;3.50;;;5.60;99.90;;;;;;4859974;29;20033;-91
2022/03/04 04:23:07;;;;;;;3.58;3.15;;;5.60;99.90;;;;;;4859936;29;20025;-91
2022/03/04 04:25:32;;;;;;;2.70;2.45;;;5.60;99.90;;;;;;4861223;29;20037;-90
2022/03/04 04:27:58;;;;;;;3.03;2.40;;;5.60;99.90;;;;;;4860037;29;20171;-91
2022/03/04 04:30:24;;;;;;;2.55;2.20;;;5.60;99.90;;;;;;4859867;29;20033;-91
2022/03/04 04:32:50;;;;;;;3.28;2.60;;;5.60;99.90;;;;;;4859824;29;20045;-91
2022/03/04 04:35:16;;;;;;;3.00;2.42;;;5.60;99.90;;;;;;4859903;29;20025;-91
2022/03/04 04:37:42;;;;;;;2.58;2.38;;;5.60;99.90;;;;;;4859793;29;20044;-91
2022/03/04 04:40:08;;;;;;;3.45;2.28;;;5.60;99.90;;;;;;4861772;29;20029;-91
2022/03/04 04:42:34;;;;;;;2.40;2.03;;;5.60;99.90;;;;;;4863469;29;20029;-91
2022/03/04 04:45:00;;;;;;;2.17;1.90;;;5.50;99.90;;;;;;4863623;29;20034;-91
2022/03/04 04:47:26;;;;;;;2.88;2.47;;;5.60;99.90;;;;;;4863878;29;20073;-90
2022/03/04 04:49:52;;;;;;;1.90;1.80;;;5.50;99.90;;;;;;4863643;29;20044;-91
2022/03/04 04:52:18;;;;;;;3.22;1.83;;;5.50;99.90;;;;;;4863244;29;20045;-90
2022/03/04 04:54:44;;;;;;;2.20;1.92;;;5.50;99.90;;;;;;4863005;29;20415;-91
2022/03/04 04:57:10;;;;;;;2.45;2.22;;;5.50;99.90;;;;;;4862274;29;20061;-92
2022/03/04 04:59:35;;;;;;;2.70;2.00;;;5.50;99.90;;;;;;4863453;29;20527;-90
2022/03/04 05:02:01;;;;;;;3.78;1.50;;;5.50;99.90;;;;;;4862993;29;20142;-91
2022/03/04 05:04:27;;;;;;;2.05;1.50;;;5.50;99.90;;;;;;4863269;29;20032;-91
2022/03/04 05:06:53;;;;;;;1.70;1.25;;;5.50;99.90;;;;;;4863302;29;20201;-92
2022/03/04 05:09:19;;;;;;;1.92;1.65;;;5.50;99.90;;;;;;4863143;29;20099;-91
2022/03/04 05:11:44;;;;;;;1.70;1.40;;;5.40;99.90;;;;;;4863006;29;20136;-91
2022/03/04 05:14:10;;;;;;;2.40;1.38;;;5.40;99.90;;;;;;4863074;29;20079;-91
2022/03/04 05:16:37;;;;;;;2.25;1.58;;;5.40;99.90;;;;;;4863058;29;20395;-91
2022/03/04 05:19:03;;;;;;;1.60;1.50;;;5.40;99.90;;;;;;4863179;29;20029;-91
2022/03/04 05:21:29;;;;;;;2.92;2.63;;;5.40;99.90;;;;;;4862669;29;20032;-90
2022/03/04 05:24:02;;;;;;;2.05;1.55;;;5.40;99.90;;;;;;4862903;29;20160;-91
2022/03/04 05:26:28;;;;;;;1.90;1.42;;;5.40;99.90;;;;;;4863050;29;20037;-91
2022/03/04 05:28:54;;;;;;;1.70;1.40;;;5.40;99.90;;;;;;4878410;29;20029;-91
2022/03/04 05:31:20;;;;;;;1.98;1.40;;;5.40;99.90;;;;;;4862834;29;20132;-89
2022/03/04 05:33:46;;;;;;;1.30;1.20;;;5.30;99.90;;;;;;4862740;29;20057;-92
2022/03/04 05:36:12;;;;;;;1.27;1.17;;;5.30;99.90;;;;;;4862386;29;20056;-90
2022/03/04 05:38:38;;;;;;;1.27;1.17;;;5.30;99.90;;;;;;4862500;29;20029;-91
2022/03/04 05:41:03;;;;;;;2.03;1.35;;;5.30;99.90;;;;;;4862725;29;20048;-91
2022/03/04 05:43:29;;;;;;;1.60;1.30;;;5.40;99.90;;;;;;4862599;29;20038;-91
2022/03/04 05:45:55;;;;;;;2.08;1.60;;;5.40;99.90;;;;;;4862518;29;20032;-91
2022/03/04 05:48:20;;;;;;;1.55;1.20;;;5.40;99.90;;;;;;4862643;29;20025;-90
2022/03/04 05:50:46;;;;;;;1.60;1.50;;;5.40;99.90;;;;;;4862167;29;20030;-91
2022/03/04 05:53:12;;;;;;;2.00;1.30;;;5.40;99.90;;;;;;4862521;29;20464;-90
2022/03/04 05:55:37;;;;;;;1.30;1.20;;;5.50;99.90;;;;;;4862423;29;20064;-91
2022/03/04 05:58:03;;;;;;;2.03;1.55;;;5.40;99.90;;;;;;4862323;29;20120;-90
2022/03/04 06:00:29;;;;;;;1.63;1.30;;;5.40;99.90;;;;;;4862430;29;20033;-90
2022/03/04 06:02:54;;;;;;;1.80;1.20;;;5.40;99.90;;;;;;4862616;29;20088;-91
2022/03/04 06:05:21;;;;;;;1.48;1.23;;;5.50;99.90;;;;;;4862158;29;20392;-90
2022/03/04 06:07:47;;;;;;;1.35;1.25;;;5.50;99.90;;;;;;4862686;29;20201;-90
2022/03/04 06:10:13;;;;;;;1.30;1.20;;;5.50;99.90;;;;;;4862284;29;20064;-91
2022/03/04 06:12:38;;;;;;;3.40;1.70;;;5.50;99.90;;;;;;4869758;29;20037;-90
2022/03/04 06:15:05;;;;;;;4.53;1.90;;;5.50;99.90;;;;;;4868111;29;20026;-89
2022/03/04 06:17:31;;;;;;;2.03;1.67;;;5.50;99.90;;;;;;4881539;29;20029;-90
2022/03/04 06:19:56;;;;;;;2.35;2.00;;;5.50;99.90;;;;;;4886230;29;20045;-90
2022/03/04 06:22:22;;;;;;;3.05;2.10;;;5.50;99.90;;;;;;4879864;29;20116;-90
2022/03/04 06:24:48;;;;;;;2.83;2.47;;;5.50;99.90;;;;;;4883420;29;20042;-89
2022/03/04 06:27:15;;;;;;;2.83;2.05;;;5.50;99.90;;;;;;4883348;29;20112;-91
2022/03/04 06:29:40;;;;;;;2.00;1.77;;;5.40;99.90;;;;;;4879861;29;20043;-90
2022/03/04 06:32:07;;;;;;;2.63;2.20;;;5.40;99.90;;;;;;4871611;29;20033;-91
2022/03/04 06:34:32;;;;;;;3.58;2.40;;;5.40;99.90;;;;;;4868278;29;20037;-92
2022/03/04 06:36:58;;;;;;;2.58;2.30;;;5.40;99.90;;;;;;4869776;29;20036;-91
2022/03/04 06:39:24;;;;;;;2.78;2.40;;;5.30;99.90;;;;;;4871532;29;20546;-90
2022/03/04 06:41:50;;;;;;;2.92;2.63;;;5.30;99.90;;;;;;4871319;29;20036;-90
2022/03/04 06:44:16;;;;;;;3.10;2.70;;;5.30;99.90;;;;;;4871461;29;20022;-90
2022/03/04 06:46:41;;;;;;;2.65;2.08;;;5.30;99.90;;;;;;4868789;29;20037;-89
2022/03/04 06:49:11;;;;;;;2.28;1.60;;;5.20;99.90;;;;;;4871040;29;20036;-89
2022/03/04 06:51:38;;;;;;;2.60;2.08;;;5.20;99.90;;;;;;4873677;29;20100;-89
2022/03/04 06:54:04;;;;;;;2.00;1.63;;;5.20;99.90;;;;;;4873586;29;20492;-90
2022/03/04 06:56:29;;;;;;;2.10;1.77;;;5.20;99.90;;;;;;4870892;29;20036;-89
2022/03/04 06:58:55;;;;;;;3.05;1.75;;;5.10;99.90;;;;;;4869012;29;20025;-92
2022/03/04 07:01:21;;;;;;;2.05;1.50;;;5.10;99.90;;;;;;4868546;29;20056;-89
2022/03/04 07:03:47;;;;;;;2.08;1.35;;;5.10;99.90;;;;;;4867758;29;20033;-90
2022/03/04 07:06:13;;;;;;;1.52;1.42;;;5.00;99.90;;;;;;4869382;29;20037;-91
2022/03/04 07:08:39;;;;;;;1.90;1.60;;;5.00;99.90;;;;;;4870076;29;20033;-91
2022/03/04 07:11:05;;;;;;;1.73;1.25;;;5.00;99.90;;;;;;4870363;29;20037;-91
2022/03/04 07:13:31;;;;;;;1.58;1.20;;;5.00;99.90;;;;;;4870296;29;20134;-91
2022/03/04 07:15:56;;;;;;;1.75;1.65;;;5.00;99.90;;;;;;4870463;29;20029;-91
2022/03/04 07:18:25;;;;;;;1.58;1.33;;;5.00;99.90;;;;;;4870387;29;20033;-89
2022/03/04 07:20:50;;;;;;;1.77;1.38;;;5.00;99.90;;;;;;4868586;29;20468;-91
2022/03/04 07:23:16;;;;;;;1.27;1.15;;;4.90;99.90;;;;;;4867392;29;20032;-90
2022/03/04 07:25:42;;;;;;;2.92;1.55;;;4.90;99.90;;;;;;4872534;29;20084;-91
2022/03/04 07:28:08;;;;;;;1.50;1.30;;;4.90;99.90;;;;;;4869786;29;20109;-90
2022/03/04 07:30:35;;;;;;;1.20;1.10;;;5.00;99.90;;;;;;4869865;29;20483;-91
2022/03/04 07:33:02;;;;;;;3.85;1.88;;;5.00;99.90;;;;;;4868513;29;20029;-91
2022/03/04 07:35:27;;;;;;;1.60;1.30;;;4.90;99.90;;;;;;4871865;29;20032;-90
2022/03/04 07:37:53;;;;;;;1.38;1.27;;;4.90;99.90;;;;;;4870026;29;20072;-90
2022/03/04 07:40:19;;;;;;;1.38;1.20;;;4.90;99.90;;;;;;4867231;29;20383;-90
2022/03/04 07:42:45;;;;;;;1.17;1.08;;;4.90;99.90;;;;;;4870085;29;20033;-90
2022/03/04 07:45:12;;;;;;;2.60;0.90;;;4.90;99.90;;;;;;4869835;29;20376;-91
2022/03/04 07:47:39;;;;;;;1.10;1.00;;;4.90;99.90;;;;;;4874252;29;20033;-91
2022/03/04 07:50:10;;;;;;;1.20;1.10;;;4.90;99.90;;;;;;4878472;29;20028;-90
2022/03/04 07:52:36;;;;;;;24.35;4.30;;;4.90;99.90;;;;;;4878662;29;20041;-89
2022/03/04 07:55:05;;;;;;;2.88;1.33;;;4.90;99.90;;;;;;4878462;29;20105;-89
2022/03/04 07:57:31;;;;;;;2.72;1.60;;;4.80;99.90;;;;;;4878581;29;20032;-90
2022/03/04 07:59:56;;;;;;;165.07;41.00;;;4.80;99.90;;;;;;4879723;29;20033;-89
2022/03/04 08:02:22;;;;;;;45.45;12.70;;;4.80;99.90;;;;;;4878406;29;20558;-89
2022/03/04 08:04:48;;;;;;;43.80;12.30;;;4.80;99.90;;;;;;4874181;29;20036;-89
2022/03/04 08:07:14;;;;;;;9.50;3.92;;;4.80;99.90;;;;;;4869134;29;20483;-89
2022/03/04 08:09:40;;;;;;;11.70;6.25;;;4.80;99.90;;;;;;4866852;29;20033;-88
2022/03/04 08:12:07;;;;;;;11.73;6.93;;;4.90;99.90;;;;;;4867090;29;20481;-90
2022/03/04 08:14:33;;;;;;;4.55;2.65;;;4.90;99.90;;;;;;4872172;29;20029;-88
2022/03/04 08:16:58;;;;;;;5.10;2.65;;;4.90;99.90;;;;;;4869798;29;20033;-87
2022/03/04 08:19:24;;;;;;;5.50;2.08;;;4.90;99.90;;;;;;4868225;29;20068;-89
2022/03/04 08:24:15;;;;;;;23.35;7.50;;;4.90;99.90;;;;;;4851092;29;20224;-91
2022/03/04 08:26:41;;;;;;;13.05;4.38;;;4.90;99.90;;;;;;4876368;29;20036;-90
2022/03/04 08:29:11;;;;;;;40.45;10.95;;;4.90;99.90;;;;;;4876738;29;20374;-89
2022/03/04 08:31:37;;;;;;;38.83;10.00;;;4.90;99.90;;;;;;4878354;29;20056;-89
2022/03/04 08:34:03;;;;;;;3.65;1.75;;;4.90;99.90;;;;;;4877787;29;20029;-89
2022/03/04 08:36:29;;;;;;;1.15;0.77;;;4.90;99.90;;;;;;4878055;29;20120;-89
2022/03/04 08:38:55;;;;;;;1.40;1.00;;;4.90;99.90;;;;;;4878236;29;20065;-89
2022/03/04 08:41:20;;;;;;;6.35;1.83;;;4.90;99.90;;;;;;4878325;29;20120;-89
2022/03/04 08:43:47;;;;;;;5.22;1.13;;;4.90;99.90;;;;;;4878497;29;20450;-90
2022/03/04 08:46:13;;;;;;;1.55;0.77;;;4.90;99.90;;;;;;4878165;29;20148;-89
2022/03/04 08:48:40;;;;;;;2.95;0.80;;;5.00;99.90;;;;;;4878821;29;20086;-89
2022/03/04 08:51:06;;;;;;;1.38;0.77;;;5.00;99.90;;;;;;4871434;29;20064;-89
2022/03/04 08:53:32;;;;;;;2.13;1.17;;;5.00;99.90;;;;;;4871669;29;20041;-89
2022/03/04 08:55:58;;;;;;;1.45;0.98;;;5.00;99.90;;;;;;4859817;29;20053;-89
2022/03/04 08:58:24;;;;;;;1.48;1.10;;;5.00;99.90;;;;;;4863922;29;20034;-88
2022/03/04 09:00:49;;;;;;;32.75;5.93;;;5.00;99.90;;;;;;4868921;29;20021;-90
2022/03/04 09:03:15;;;;;;;7.88;2.13;;;5.10;99.90;;;;;;4863559;29;20036;-89
2022/03/04 09:05:41;;;;;;;11.18;2.55;;;5.10;99.90;;;;;;4859462;29;20029;-88
2022/03/04 09:08:07;;;;;;;6.20;1.33;;;5.10;99.90;;;;;;4861074;29;20081;-90
2022/03/04 09:10:33;;;;;;;16.17;2.97;;;5.10;99.90;;;;;;4859889;29;20033;-89
2022/03/04 09:12:59;;;;;;;6.32;1.88;;;5.20;99.90;;;;;;4859686;29;20044;-91
2022/03/04 09:15:24;;;;;;;3.20;1.23;;;5.20;99.90;;;;;;4859851;29;20116;-89
2022/03/04 09:17:50;;;;;;;1.17;0.70;;;5.20;99.90;;;;;;4860053;29;20040;-91
2022/03/04 09:20:19;;;;;;;0.88;0.60;;;5.20;99.90;;;;;;4859730;29;20064;-89
2022/03/04 09:22:48;;;;;;;0.98;0.50;;;5.20;99.90;;;;;;4864766;29;20030;-88
2022/03/04 09:25:14;;;;;;;0.40;0.40;;;5.20;99.90;;;;;;4866291;29;20061;-88
2022/03/04 09:27:46;;;;;;;0.95;0.60;;;5.30;99.90;;;;;;4864185;29;20091;-89
2022/03/04 09:30:12;;;;;;;1.05;0.50;;;5.30;99.90;;;;;;4874038;29;20060;-89
2022/03/04 09:32:39;;;;;;;0.55;0.47;;;5.30;99.90;;;;;;4892221;29;20479;-89
2022/03/04 09:35:05;;;;;;;0.60;0.60;;;5.30;99.90;;;;;;4901259;29;20021;-89
2022/03/04 09:37:32;;;;;;;0.95;0.60;;;5.30;99.90;;;;;;4901952;29;20021;-88
2022/03/04 09:39:57;;;;;;;0.65;0.57;;;5.40;99.90;;;;;;4902959;29;20017;-88
2022/03/04 09:42:24;;;;;;;1.80;0.68;;;5.40;99.90;;;;;;4891931;29;20048;-90
2022/03/04 09:44:49;;;;;;;1.33;0.70;;;5.40;99.90;;;;;;4886030;29;20076;-90
2022/03/04 09:47:21;;;;;;;5.18;1.45;;;5.40;99.90;;;;;;4881502;29;20630;-91
2022/03/04 09:49:48;;;;;;;4.78;0.60;;;5.50;99.90;;;;;;4881639;29;20021;-90
2022/03/04 09:52:14;;;;;;;0.40;0.35;;;5.50;99.90;;;;;;4881240;29;20063;-89
2022/03/04 09:54:40;;;;;;;0.38;0.22;;;5.50;99.90;;;;;;4881013;29;20547;-90
2022/03/04 09:57:05;;;;;;;0.47;0.45;;;5.50;99.90;;;;;;4881086;29;20037;-90
2022/03/04 09:59:31;;;;;;;2.40;0.40;;;5.60;99.90;;;;;;4881474;29;20060;-90
2022/03/04 10:01:58;;;;;;;0.38;0.28;;;5.60;99.90;;;;;;4881488;29;20033;-89
2022/03/04 10:04:28;;;;;;;2.72;0.40;;;5.70;99.90;;;;;;4881218;29;20411;-89
2022/03/04 10:06:53;;;;;;;2.53;0.60;;;5.70;99.90;;;;;;4880642;29;20483;-90
2022/03/04 10:09:45;;;;;;;0.40;0.40;;;5.80;99.90;;;;;;4880418;29;20273;-91
2022/03/04 10:12:13;;;;;;;0.57;0.57;;;6.00;99.90;;;;;;4895711;29;20037;-90
2022/03/04 10:15:00;;;;;;;0.47;0.40;;;6.10;99.90;;;;;;4881001;29;20032;-90
2022/03/04 10:17:26;;;;;;;0.80;0.70;;;6.20;99.90;;;;;;4877830;29;20116;-88
2022/03/04 10:19:58;;;;;;;1.23;0.30;;;6.30;99.90;;;;;;4881103;29;20058;-91
2022/03/04 10:22:37;;;;;;;1.98;0.52;;;6.40;99.90;;;;;;4880581;29;20033;-90
2022/03/04 10:25:18;;;;;;;0.57;0.55;;;6.60;99.90;;;;;;4880928;29;20058;-90
2022/03/04 10:27:44;;;;;;;0.85;0.38;;;6.70;99.90;;;;;;4880537;29;20482;-90
2022/03/04 10:30:10;;;;;;;0.80;0.52;;;6.80;99.90;;;;;;4880999;29;20040;-90
2022/03/04 10:32:35;;;;;;;0.77;0.60;;;6.90;99.90;;;;;;4880982;29;20180;-90
2022/03/04 10:35:07;;;;;;;0.60;0.60;;;6.90;99.90;;;;;;4880664;29;20021;-90
2022/03/04 10:37:52;;;;;;;0.75;0.73;;;6.90;99.90;;;;;;4879528;29;20447;-89
2022/03/04 10:40:19;;;;;;;2.72;1.00;;;6.90;99.90;;;;;;4866938;29;20040;-90
2022/03/04 10:43:06;;;;;;;1.65;0.95;;;6.90;99.90;;;;;;4867667;29;20495;-90
2022/03/04 10:45:33;;;;;;;1.38;0.70;;;6.90;99.90;;;;;;4861975;29;20040;-89
2022/03/04 10:48:02;;;;;;;0.90;0.50;;;7.00;99.90;;;;;;4864699;29;20041;-90
2022/03/04 10:50:48;;;;;;;1.15;0.60;;;7.00;99.90;;;;;;4870651;29;20022;-90
2022/03/04 10:53:21;;;;;;;2.15;1.05;;;7.10;99.90;;;;;;4871399;29;20042;-90
2022/03/04 10:55:57;;;;;;;1.75;1.02;;;7.10;99.90;;;;;;4871204;29;20044;-91
2022/03/04 10:58:31;;;;;;;2.40;0.88;;;7.30;99.90;;;;;;4866849;29;20038;-90
2022/03/04 11:01:12;;;;;;;1.17;0.68;;;7.40;99.90;;;;;;4871645;29;20021;-88
2022/03/04 11:03:41;;;;;;;;;;;7.40;99.90;;;;;;4872036;29;20032;-91
2022/03/04 11:06:08;;;;;;;0.75;0.68;;;7.40;99.90;;;;;;4871260;29;19919;-91
2022/03/04 11:08:36;;;;;;;1.00;0.80;;;7.40;99.90;;;;;;4874423;29;20244;-90
2022/03/04 11:11:02;;;;;;;1.58;0.88;;;7.50;99.90;;;;;;4868819;29;20403;-91
2022/03/04 11:13:30;;;;;;;3.00;0.80;;;7.40;99.90;;;;;;4873279;29;20029;-91
2022/03/04 11:15:56;;;;;;;3.55;1.23;;;7.50;99.90;;;;;;4870226;29;20217;-89
2022/03/04 11:18:22;;;;;;;2.70;0.80;;;7.50;99.90;;;;;;4878687;29;20358;-90
2022/03/04 11:20:53;;;;;;;3.97;1.00;;;7.50;99.90;;;;;;4872175;29;20101;-89
2022/03/04 11:23:31;;;;;;;2.72;0.80;;;7.60;99.90;;;;;;4872287;29;20033;-91
2022/03/04 11:26:04;;;;;;;1.45;0.90;;;7.50;99.90;;;;;;4873477;29;20029;-89
2022/03/04 11:28:44;;;;;;;2.10;0.93;;;7.50;99.90;;;;;;4867449;29;20032;-88
2022/03/04 11:31:15;;;;;;;3.60;1.05;;;7.40;99.90;;;;;;4871349;29;20043;-89
2022/03/04 11:34:02;;;;;;;1.80;1.33;;;7.30;99.90;;;;;;4871439;29;20033;-90
2022/03/04 11:36:34;;;;;;;3.47;1.52;;;7.20;99.90;;;;;;4872442;29;20025;-88
2022/03/04 11:39:01;;;;;;;3.85;1.83;;;7.30;99.90;;;;;;4871709;29;20445;-89
2022/03/04 11:41:27;;;;;;;6.28;1.60;;;7.20;99.90;;;;;;4864577;29;20029;-90
2022/03/04 11:43:54;;;;;;;3.28;1.80;;;7.10;99.90;;;;;;4872223;29;20048;-91
2022/03/04 11:46:28;;;;;;;6.82;2.47;;;7.10;99.90;;;;;;4878305;29;20093;-90
2022/03/04 11:49:31;;;;;;;6.18;2.80;;;7.10;99.90;;;;;;4876741;29;20132;-90
2022/03/04 11:52:09;;;;;;;4.35;2.50;;;7.00;99.90;;;;;;4873996;29;20049;-91
2022/03/04 11:54:41;;;;;;;9.05;3.38;;;7.00;99.90;;;;;;4864766;29;20048;-90
2022/03/04 11:57:26;;;;;;;5.35;2.97;;;7.00;99.90;;;;;;4866196;29;20492;-90
2022/03/04 11:59:55;;;;;;;6.60;3.90;;;6.90;99.90;;;;;;4864678;29;20527;-90
2022/03/04 12:02:25;;;;;;;12.70;4.22;;;6.90;99.90;;;;;;4866895;29;20162;-92
2022/03/04 12:05:14;;;;;;;6.07;4.25;;;6.90;99.90;;;;;;4867244;29;20033;-90
2022/03/04 12:08:00;;;;;;;7.47;4.07;;;6.90;99.90;;;;;;4868581;29;20056;-90
2022/03/04 12:10:40;;;;;;;8.75;4.90;;;6.90;99.90;;;;;;4867145;29;20160;-91
2022/03/04 12:13:18;;;;;;;5.55;4.50;;;6.90;99.90;;;;;;4874632;29;20029;-90
2022/03/04 12:16:07;;;;;;;6.70;4.32;;;7.00;99.90;;;;;;4863622;29;20049;-89
2022/03/04 12:18:39;;;;;;;8.85;4.10;;;7.00;99.90;;;;;;4869647;29;20073;-90
2022/03/04 12:21:07;;;;;;;7.35;4.10;;;7.10;99.90;;;;;;4866940;29;20029;-90
2022/03/04 12:23:39;;;;;;;7.57;4.28;;;7.10;99.90;;;;;;4869933;29;20051;-89
2022/03/04 12:26:05;;;;;;;5.75;4.00;;;7.10;99.90;;;;;;4870411;29;20076;-89
2022/03/04 12:28:50;;;;;;;10.20;3.72;;;7.20;99.90;;;;;;4870084;29;20017;-90
2022/03/04 12:31:17;;;;;;;7.40;3.30;;;7.20;99.90;;;;;;4868521;29;20041;-90
2022/03/04 12:33:54;;;;;;;5.57;3.45;;;7.20;99.90;;;;;;4870482;29;20044;-89
2022/03/04 12:36:21;;;;;;;6.40;3.47;;;7.20;99.90;;;;;;4875119;29;20057;-90
2022/03/04 12:38:48;;;;;;;7.35;3.15;;;7.20;99.90;;;;;;4874827;29;20040;-90
2022/03/04 12:41:16;;;;;;;5.85;3.22;;;7.20;99.90;;;;;;4887898;29;20044;-88
2022/03/04 12:43:46;;;;;;;5.88;2.90;;;7.30;99.90;;;;;;4897928;29;20033;-89
2022/03/04 12:46:17;;;;;;;7.50;2.83;;;7.20;99.90;;;;;;4896602;29;20029;-90
2022/03/04 12:48:43;;;;;;;;;;;7.30;99.90;;;;;;4893660;29;20265;-89
2022/03/04 12:51:29;;;;;;;5.40;2.45;;;7.20;99.90;;;;;;4891085;29;19923;-90
2022/03/04 12:53:58;;;;;;;5.70;2.20;;;7.20;99.90;;;;;;4890202;29;20029;-89
2022/03/04 12:56:24;;;;;;;6.63;2.50;;;7.10;99.90;;;;;;4875285;29;20155;-90
2022/03/04 12:58:52;;;;;;;5.00;2.90;;;7.10;99.90;;;;;;4869798;29;20029;-91
2022/03/04 13:01:20;;;;;;;7.72;3.10;;;7.10;99.90;;;;;;4877235;29;20068;-91
2022/03/04 13:03:51;;;;;;;5.07;2.65;;;7.10;99.90;;;;;;4881118;29;20131;-91